CheckWX is a tool to help pilots better visualize weather data.  It is not intended as a substitute for an official pre-flight weather briefing.

03:38:10 UTC

KGUP METAR
Gallup Municipal Airport
Gallup, New Mexico, USA
Current

45 mins ago

KGUP 270253Z AUTO 23013KT 10SM CLR 14/M04 A2995 RMK AO2 PK WND 22028/0200 SLP015 T01441044 51015
Observed
May-27 @ 02:53 UTC
Wind
  • 230° at 13 KTS
Visibility
10 SM
Flight Rules
VFR
Cloud Levels
  • Clear skies
Temperature
14°C / 57°F
Dewpoint
-4°C / 25°F
Humidity
29%
Altimeter
29.95" Hg
Pressure
1014.22 hPa
Previous

2 hours ago

KGUP 270153Z AUTO 23015G27KT 10SM CLR 17/M06 A2994 RMK AO2 PK WND 24033/0116 SLP040 T01671061
Observed
May-27 @ 01:53 UTC
Wind
  • 230° at 15 KTS
  • Gusting to 27 KTS
Visibility
10 SM
Flight Rules
VFR
Cloud Levels
  • Clear skies
Temperature
17°C / 63°F
Dewpoint
-6°C / 21°F
Humidity
20%
Altimeter
29.94" Hg
Pressure
1013.92 hPa
Previous

3 hours ago

KGUP 270053Z AUTO 24021G30KT 10SM CLR 19/M06 A2992 RMK AO2 PK WND 22039/0015 SLP046 T01941061
Observed
May-27 @ 00:53 UTC
Wind
  • 240° at 21 KTS
  • Gusting to 30 KTS
Visibility
10 SM
Flight Rules
VFR
Cloud Levels
  • Clear skies
Temperature
19°C / 66°F
Dewpoint
-6°C / 21°F
Humidity
18%
Altimeter
29.92" Hg
Pressure
1013.22 hPa